Time;durP1;ratioP1;P1;durP2;ratioP2;P2;SDS_P1;SDS_P2;PMS_P1;PMS_P2;Temp;Humidity;BMP_temperature;BMP_pressure;BME280_temperature;BME280_humidity;BME280_pressure;Samples;Min_cycle;Max_cycle;Signal;HPM_P1;HPM_P2
2023/08/21 00:01:29;;;;;;;12.10;6.70;;;;;;;;;;4968358;28;20211;-84
2023/08/21 00:03:55;;;;;;;8.30;5.93;;;22.80;99.90;;;;;;4969916;28;20200;-83
2023/08/21 00:06:21;;;;;;;12.03;6.83;;;;;;;;;;4977877;28;20451;-84
2023/08/21 00:08:47;;;;;;;9.53;5.80;;;22.80;99.90;;;;;;4970477;28;20228;-81
2023/08/21 00:11:12;;;;;;;10.90;6.17;;;22.70;99.90;;;;;;4972467;28;20449;-81
2023/08/21 00:13:38;;;;;;;10.23;6.70;;;22.60;99.90;;;;;;4975364;28;21263;-83
2023/08/21 00:16:03;;;;;;;12.07;6.70;;;22.50;99.90;;;;;;4971522;28;20207;-85
2023/08/21 00:18:29;;;;;;;9.80;5.70;;;22.40;99.90;;;;;;4975355;28;20290;-84
2023/08/21 00:20:54;;;;;;;14.13;6.13;;;22.90;99.90;;;;;;4985842;28;20187;-85
2023/08/21 00:23:20;;;;;;;13.83;7.57;;;22.30;99.90;;;;;;4975081;28;20211;-82
2023/08/21 00:25:47;;;;;;;7.17;5.60;;;22.30;99.90;;;;;;4977997;28;20211;-82
2023/08/21 00:28:13;;;;;;;12.93;6.93;;;22.20;99.90;;;;;;4972035;28;20244;-82
2023/08/21 00:30:39;;;;;;;13.20;7.53;;;22.10;99.90;;;;;;4977266;28;20473;-83
2023/08/21 00:33:04;;;;;;;9.70;6.50;;;22.10;99.90;;;;;;4986763;28;20442;-86
2023/08/21 00:35:30;;;;;;;13.30;7.30;;;22.10;99.90;;;;;;4986077;28;20624;-84
2023/08/21 00:37:55;;;;;;;9.90;7.10;;;22.10;99.90;;;;;;4978425;28;20218;-82
2023/08/21 00:40:21;;;;;;;8.57;6.30;;;22.20;99.90;;;;;;4978792;28;20191;-83
2023/08/21 00:42:47;;;;;;;11.37;7.57;;;22.20;99.90;;;;;;4975950;28;20790;-78
2023/08/21 00:45:12;;;;;;;10.50;6.63;;;22.10;99.90;;;;;;4991708;28;20221;-86
2023/08/21 00:47:38;;;;;;;8.10;6.00;;;22.20;99.90;;;;;;4971315;28;20203;-85
2023/08/21 00:50:06;;;;;;;12.77;6.53;;;22.20;99.90;;;;;;4975912;28;20602;-87
2023/08/21 00:52:33;;;;;;;9.83;6.73;;;22.20;99.90;;;;;;4977011;28;20524;-82
2023/08/21 00:55:00;;;;;;;11.60;6.43;;;22.20;99.90;;;;;;4969945;28;20470;-86
2023/08/21 00:57:26;;;;;;;8.40;6.13;;;22.20;99.90;;;;;;4974915;28;20463;-84
2023/08/21 00:59:52;;;;;;;8.40;6.20;;;22.10;99.90;;;;;;4979787;28;20468;-84
2023/08/21 01:02:19;;;;;;;8.37;5.97;;;22.30;99.90;;;;;;4985229;28;21233;-83
2023/08/21 01:04:44;;;;;;;10.30;7.33;;;22.10;99.90;;;;;;4984414;28;20753;-84
2023/08/21 01:07:10;;;;;;;7.00;6.30;;;22.10;99.90;;;;;;4978048;28;20443;-81
2023/08/21 01:10:00;;;;;;;13.40;6.40;;;22.10;99.90;;;;;;4971157;28;20303;-82
2023/08/21 01:12:37;;;;;;;12.47;7.23;;;22.10;99.90;;;;;;4974283;28;20238;-82
2023/08/21 01:15:06;;;;;;;10.07;7.03;;;22.00;99.90;;;;;;4973625;28;20451;-84
2023/08/21 01:17:35;;;;;;;10.20;6.30;;;22.10;99.90;;;;;;4964233;28;20473;-82
2023/08/21 01:20:02;;;;;;;10.20;8.50;;;22.00;99.90;;;;;;4977704;28;20503;-82
2023/08/21 01:22:35;;;;;;;10.57;7.03;;;21.90;99.90;;;;;;4974038;28;20462;-84
2023/08/21 01:25:00;;;;;;;8.13;5.90;;;21.90;99.90;;;;;;4980576;28;20454;-83
2023/08/21 01:27:26;;;;;;;8.70;7.00;;;21.90;99.90;;;;;;4977928;28;20465;-86
2023/08/21 01:29:52;;;;;;;8.13;6.20;;;21.90;99.90;;;;;;4972861;28;20179;-83
2023/08/21 01:32:32;;;;;;;8.27;6.50;;;21.80;99.90;;;;;;4972306;28;20448;-82
2023/08/21 01:34:58;;;;;;;8.10;6.17;;;21.90;99.90;;;;;;4978612;28;20525;-83
2023/08/21 01:37:25;;;;;;;10.63;6.63;;;21.90;99.90;;;;;;4971418;28;22208;-82
2023/08/21 01:39:51;;;;;;;9.27;6.53;;;21.90;99.90;;;;;;4980227;28;21276;-84
2023/08/21 01:42:17;;;;;;;10.87;6.67;;;21.80;99.90;;;;;;4973001;28;20492;-84
2023/08/21 01:44:45;;;;;;;9.10;7.37;;;21.80;99.90;;;;;;4965386;28;20223;-84
2023/08/21 01:47:11;;;;;;;7.13;6.40;;;21.70;99.90;;;;;;4974440;28;20172;-84
2023/08/21 01:49:37;;;;;;;8.07;7.10;;;22.40;99.90;;;;;;4975928;28;20430;-83
2023/08/21 01:52:02;;;;;;;10.83;7.33;;;21.70;99.90;;;;;;4979692;28;20174;-85
2023/08/21 01:54:28;;;;;;;9.37;6.10;;;21.60;99.90;;;;;;4978037;28;20234;-84
2023/08/21 01:56:53;;;;;;;12.37;7.30;;;21.60;99.90;;;;;;4972856;28;20206;-83
2023/08/21 01:59:19;;;;;;;8.73;6.50;;;21.60;99.90;;;;;;4987063;28;20211;-80
2023/08/21 02:01:45;;;;;;;11.50;6.80;;;21.60;99.90;;;;;;4984777;28;20198;-85
2023/08/21 02:04:10;;;;;;;8.97;7.40;;;21.60;99.90;;;;;;4991001;28;20497;-83
2023/08/21 02:06:36;;;;;;;10.20;7.57;;;21.50;99.90;;;;;;4979876;28;20325;-86
2023/08/21 02:09:01;;;;;;;9.47;6.90;;;21.50;99.90;;;;;;4977211;28;20195;-85
2023/08/21 02:11:27;;;;;;;9.13;7.27;;;21.50;99.90;;;;;;4978032;28;20206;-85
2023/08/21 02:13:52;;;;;;;11.07;6.17;;;21.50;99.90;;;;;;4974704;28;22210;-83
2023/08/21 02:16:18;;;;;;;7.33;5.87;;;21.50;99.90;;;;;;4974884;28;20191;-82
2023/08/21 02:18:43;;;;;;;9.17;6.30;;;21.50;99.90;;;;;;4974608;28;20199;-85
2023/08/21 02:21:09;;;;;;;17.30;6.40;;;21.50;99.90;;;;;;4974842;28;20348;-84
2023/08/21 02:23:34;;;;;;;8.67;6.80;;;21.40;99.90;;;;;;4976235;28;20198;-83
2023/08/21 02:26:00;;;;;;;15.50;7.03;;;21.50;99.90;;;;;;4973457;28;20215;-83
2023/08/21 02:28:26;;;;;;;8.40;7.07;;;21.50;99.90;;;;;;4972204;28;20207;-83
2023/08/21 02:30:51;;;;;;;10.50;6.87;;;21.50;99.90;;;;;;4988491;28;20183;-83
2023/08/21 02:33:17;;;;;;;9.90;6.90;;;21.40;99.90;;;;;;4991191;28;20215;-84
2023/08/21 02:35:42;;;;;;;11.83;6.37;;;21.50;99.90;;;;;;4974367;28;20718;-87
2023/08/21 02:38:08;;;;;;;11.57;7.47;;;21.40;99.90;;;;;;4982634;28;20227;-84
2023/08/21 02:40:33;;;;;;;16.43;7.37;;;21.30;99.90;;;;;;4978403;28;20195;-82
2023/08/21 02:42:59;;;;;;;11.83;7.57;;;21.20;99.90;;;;;;4975103;28;20202;-84
2023/08/21 02:45:24;;;;;;;8.73;6.73;;;21.20;99.90;;;;;;4974701;28;20195;-84
2023/08/21 02:47:50;;;;;;;9.83;8.07;;;21.20;99.90;;;;;;4978606;28;20253;-82
2023/08/21 02:50:15;;;;;;;8.37;6.30;;;21.20;99.90;;;;;;4975817;28;20194;-84
2023/08/21 02:52:41;;;;;;;9.40;6.90;;;21.20;99.90;;;;;;4966563;28;20184;-83
2023/08/21 02:55:07;;;;;;;10.00;7.97;;;21.20;99.90;;;;;;4969015;28;20711;-85
2023/08/21 02:57:32;;;;;;;15.20;7.33;;;21.20;99.90;;;;;;4972667;28;20323;-84
2023/08/21 02:59:58;;;;;;;8.93;7.03;;;21.20;99.90;;;;;;4975719;28;20454;-80
2023/08/21 03:02:23;;;;;;;8.63;6.90;;;21.20;99.90;;;;;;4970941;28;20645;-80
2023/08/21 03:04:50;;;;;;;12.80;7.07;;;21.20;99.90;;;;;;4970097;28;20219;-84
2023/08/21 03:07:15;;;;;;;7.57;6.20;;;21.20;99.90;;;;;;4973356;28;20613;-82
2023/08/21 03:09:41;;;;;;;15.40;7.37;;;21.20;99.90;;;;;;4968836;28;20439;-84
2023/08/21 03:12:07;;;;;;;14.73;7.70;;;21.20;99.90;;;;;;4971648;28;20182;-80
2023/08/21 03:14:34;;;;;;;10.87;7.67;;;21.20;99.90;;;;;;4969798;28;20194;-83
2023/08/21 03:16:59;;;;;;;9.53;7.43;;;21.20;99.90;;;;;;4965569;28;20438;-83
2023/08/21 03:19:25;;;;;;;11.63;8.17;;;21.20;99.90;;;;;;4969609;28;20802;-82
2023/08/21 03:21:51;;;;;;;9.63;6.97;;;21.20;99.90;;;;;;4985774;28;20195;-80
2023/08/21 03:24:17;;;;;;;8.07;6.70;;;21.30;99.90;;;;;;4978189;28;20179;-82
2023/08/21 03:26:42;;;;;;;14.40;7.60;;;21.20;99.90;;;;;;4973634;28;20959;-83
2023/08/21 03:29:08;;;;;;;8.73;7.40;;;21.30;99.90;;;;;;4970771;28;20242;-87
2023/08/21 03:31:33;;;;;;;15.17;6.40;;;21.30;99.90;;;;;;4970192;28;20763;-86
2023/08/21 03:33:59;;;;;;;9.33;7.90;;;21.30;99.90;;;;;;4968461;28;20200;-82
2023/08/21 03:36:31;;;;;;;9.10;7.00;;;21.20;99.90;;;;;;4980347;28;20269;-84
2023/08/21 03:39:01;;;;;;;10.00;6.80;;;21.10;99.90;;;;;;4971854;28;20214;-83
2023/08/21 03:41:27;;;;;;;8.17;7.00;;;21.10;99.90;;;;;;4988601;28;20497;-84
2023/08/21 03:43:53;;;;;;;9.40;7.40;;;21.10;99.90;;;;;;4973569;28;20886;-84
2023/08/21 03:46:18;;;;;;;10.30;7.40;;;21.10;99.90;;;;;;4977474;28;20467;-83
2023/08/21 03:48:44;;;;;;;10.70;7.67;;;21.00;99.90;;;;;;4977637;28;20543;-83
2023/08/21 03:51:09;;;;;;;11.10;8.13;;;21.00;99.90;;;;;;4986839;28;20213;-84
2023/08/21 03:53:35;;;;;;;8.80;7.80;;;21.10;99.90;;;;;;4970247;28;20222;-86
2023/08/21 03:56:01;;;;;;;11.30;7.57;;;21.10;99.90;;;;;;4988582;28;20184;-81
2023/08/21 03:58:26;;;;;;;13.03;7.60;;;21.00;99.90;;;;;;4978593;28;20269;-82
2023/08/21 04:00:52;;;;;;;13.70;7.70;;;21.10;99.90;;;;;;4978856;28;20179;-85
2023/08/21 04:03:18;;;;;;;11.53;7.60;;;21.00;99.90;;;;;;4980558;28;20241;-83
2023/08/21 04:05:44;;;;;;;9.63;7.70;;;20.90;99.90;;;;;;4989680;28;20760;-86
2023/08/21 04:08:09;;;;;;;11.70;7.37;;;20.80;99.90;;;;;;4975450;28;20208;-83
2023/08/21 04:10:35;;;;;;;9.47;6.93;;;20.80;99.90;;;;;;4978199;28;20290;-80
2023/08/21 04:13:00;;;;;;;9.77;7.53;;;20.90;99.90;;;;;;4975983;28;20199;-84
2023/08/21 04:15:26;;;;;;;9.80;7.33;;;20.90;99.90;;;;;;4968848;28;20748;-85
2023/08/21 04:17:52;;;;;;;17.50;7.90;;;20.80;99.90;;;;;;4974233;28;20329;-83
2023/08/21 04:20:19;;;;;;;13.53;8.10;;;20.80;99.90;;;;;;4979392;28;20627;-84
2023/08/21 04:22:45;;;;;;;9.07;7.07;;;20.80;99.90;;;;;;4975511;28;20241;-83
2023/08/21 04:25:11;;;;;;;17.63;6.77;;;20.80;99.90;;;;;;4975832;28;22128;-83
2023/08/21 04:27:37;;;;;;;8.57;7.40;;;20.70;99.90;;;;;;4976400;28;20951;-84
2023/08/21 04:30:03;;;;;;;11.70;7.90;;;20.60;99.90;;;;;;4970340;28;20207;-83
2023/08/21 04:32:29;;;;;;;15.77;8.40;;;20.60;99.90;;;;;;4975229;28;20439;-83
2023/08/21 04:34:54;;;;;;;10.27;8.03;;;20.60;99.90;;;;;;4978298;28;20947;-83
2023/08/21 04:37:20;;;;;;;10.73;7.13;;;20.70;99.90;;;;;;4970543;28;20199;-83
2023/08/21 04:39:49;;;;;;;11.63;8.00;;;20.80;99.90;;;;;;4972498;28;20182;-83
2023/08/21 04:42:15;;;;;;;11.33;7.63;;;20.90;99.90;;;;;;4997235;28;20435;-84
2023/08/21 04:44:40;;;;;;;11.63;7.30;;;21.00;99.90;;;;;;4979478;28;20437;-84
2023/08/21 04:47:22;;;;;;;8.90;7.23;;;21.20;99.90;;;;;;4977854;28;20194;-83
2023/08/21 04:49:51;;;;;;;9.37;7.60;;;21.30;99.90;;;;;;4975130;28;20187;-83
2023/08/21 04:52:16;;;;;;;8.50;7.60;;;21.70;99.90;;;;;;4973505;28;20483;-82
2023/08/21 04:54:42;;;;;;;7.53;6.73;;;22.40;99.90;;;;;;4978652;28;20462;-86
2023/08/21 04:57:07;;;;;;;8.27;6.47;;;23.00;99.90;;;;;;4975840;28;20307;-83
2023/08/21 04:59:33;;;;;;;11.80;6.20;;;23.80;99.90;;;;;;4975701;28;20211;-82
2023/08/21 05:01:58;;;;;;;9.30;6.13;;;24.50;99.90;;;;;;4977425;28;20527;-81
2023/08/21 05:04:24;;;;;;;11.33;6.40;;;25.40;99.90;;;;;;4975270;28;20187;-84
2023/08/21 05:06:49;;;;;;;9.90;6.87;;;26.30;99.90;;;;;;4974275;28;20692;-86
2023/08/21 05:09:15;;;;;;;8.53;5.90;;;27.00;99.90;;;;;;4976106;28;20235;-83
2023/08/21 05:11:40;;;;;;;14.03;6.50;;;27.70;99.90;;;;;;4969888;28;20770;-83
2023/08/21 05:14:06;;;;;;;8.60;6.60;;;28.60;99.90;;;;;;4975015;28;20199;-84
2023/08/21 05:16:32;;;;;;;8.20;7.00;;;29.50;99.90;;;;;;4970556;28;20211;-82
2023/08/21 05:18:57;;;;;;;10.07;5.77;;;29.90;99.90;;;;;;4981528;28;20219;-85
2023/08/21 05:21:23;;;;;;;6.67;6.07;;;29.80;99.90;;;;;;4978663;28;20192;-81
2023/08/21 05:23:48;;;;;;;8.43;5.97;;;30.10;99.90;;;;;;4983837;28;20198;-83
2023/08/21 05:26:14;;;;;;;11.60;6.33;;;30.90;99.90;;;;;;4973969;28;20211;-86
2023/08/21 05:28:39;;;;;;;6.73;5.73;;;31.90;99.90;;;;;;4976921;28;20220;-83
2023/08/21 05:31:05;;;;;;;10.13;6.57;;;33.10;99.90;;;;;;4975985;28;20654;-85
2023/08/21 05:33:30;;;;;;;6.83;6.23;;;34.00;99.90;;;;;;4973657;28;20266;-81
2023/08/21 05:35:59;;;;;;;17.43;6.60;;;34.90;99.90;;;;;;4972821;28;20187;-84
2023/08/21 05:38:24;;;;;;;9.00;6.37;;;35.80;99.90;;;;;;4970054;28;20198;-85
2023/08/21 05:40:50;;;;;;;11.90;5.57;;;36.70;99.90;;;;;;4976590;28;20538;-85
2023/08/21 05:43:16;;;;;;;8.20;5.63;;;37.20;98.90;;;;;;4978774;28;20195;-84
2023/08/21 05:45:42;;;;;;;6.67;4.97;;;37.30;97.50;;;;;;4980663;28;20208;-86
2023/08/21 05:48:08;;;;;;;9.87;6.30;;;37.70;95.90;;;;;;4977020;28;20462;-82
2023/08/21 05:50:36;;;;;;;7.70;6.90;;;38.20;94.40;;;;;;4973685;28;20265;-85
2023/08/21 05:53:04;;;;;;;8.90;6.73;;;38.00;92.80;;;;;;4974283;28;20214;-84
2023/08/21 05:55:30;;;;;;;13.97;6.93;;;37.60;92.20;;;;;;4974173;28;20482;-85
2023/08/21 05:57:55;;;;;;;8.70;6.57;;;37.70;91.00;;;;;;4971699;28;20493;-84
2023/08/21 06:00:21;;;;;;;8.37;6.30;;;37.10;90.60;;;;;;4987070;28;20214;-81
2023/08/21 06:02:47;;;;;;;7.80;5.60;;;36.90;91.60;;;;;;4978623;28;20705;-83
2023/08/21 06:05:12;;;;;;;8.90;6.40;;;36.60;91.10;;;;;;4975444;28;20338;-84
2023/08/21 06:07:39;;;;;;;7.03;6.00;;;36.80;91.40;;;;;;4973401;28;20271;-81
2023/08/21 06:10:12;;;;;;;11.13;6.27;;;38.00;91.00;;;;;;4979203;28;20183;-82
2023/08/21 06:12:41;;;;;;;8.43;5.90;;;40.00;87.50;;;;;;4978880;28;20466;-83
2023/08/21 06:15:08;;;;;;;7.03;6.27;;;41.60;80.80;;;;;;4975179;28;20483;-82
2023/08/21 06:17:34;;;;;;;10.50;6.17;;;42.90;75.30;;;;;;4971178;28;20470;-83
2023/08/21 06:19:59;;;;;;;6.90;6.20;;;43.60;68.50;;;;;;4973450;28;20449;-85
2023/08/21 06:22:25;;;;;;;8.90;6.50;;;44.20;65.90;;;;;;4973725;28;20286;-84
2023/08/21 06:24:50;;;;;;;10.23;6.93;;;45.00;60.60;;;;;;4969983;28;20199;-82
2023/08/21 06:27:16;;;;;;;7.17;6.07;;;45.90;56.90;;;;;;4977436;28;20251;-86
2023/08/21 06:29:43;;;;;;;7.70;6.40;;;45.10;55.00;;;;;;4971170;28;20202;-84
2023/08/21 06:32:08;;;;;;;9.80;5.90;;;43.30;55.90;;;;;;4969422;28;20445;-83
2023/08/21 06:34:34;;;;;;;9.13;6.47;;;42.30;57.80;;;;;;4967713;28;20836;-81
2023/08/21 06:37:00;;;;;;;7.60;6.67;;;42.40;57.40;;;;;;4967116;28;20280;-83
2023/08/21 06:39:26;;;;;;;7.30;6.47;;;42.40;56.90;;;;;;4969508;28;20726;-85
2023/08/21 06:41:51;;;;;;;9.13;7.03;;;43.20;57.00;;;;;;4967881;28;20572;-84
2023/08/21 06:44:17;;;;;;;7.80;6.53;;;42.50;55.40;;;;;;4975885;28;20457;-81
2023/08/21 06:46:43;;;;;;;8.00;6.47;;;42.30;55.60;;;;;;4965300;28;20209;-85
2023/08/21 06:49:09;;;;;;;7.80;6.90;;;41.70;56.00;;;;;;4970304;28;21314;-84
2023/08/21 06:51:34;;;;;;;10.90;7.13;;;41.60;56.50;;;;;;4980367;28;20255;-80
2023/08/21 06:54:00;;;;;;;9.17;7.40;;;41.90;57.40;;;;;;4971370;28;20635;-82
2023/08/21 06:56:25;;;;;;;10.30;6.53;;;42.80;56.90;;;;;;4974784;28;20199;-83
2023/08/21 06:58:52;;;;;;;8.00;6.60;;;43.20;54.30;;;;;;4968966;28;20277;-83
2023/08/21 07:01:17;;;;;;;13.10;6.60;;;42.90;55.90;;;;;;4973739;28;20203;-85
2023/08/21 07:03:43;;;;;;;7.27;6.50;;;43.50;54.20;;;;;;4971843;28;20443;-83
2023/08/21 07:06:09;;;;;;;7.20;6.50;;;43.80;53.90;;;;;;4976219;28;21389;-84
2023/08/21 07:08:34;;;;;;;9.43;6.63;;;45.00;52.80;;;;;;4978203;28;20299;-89
2023/08/21 07:11:03;;;;;;;11.17;5.80;;;44.80;52.00;;;;;;4983024;28;20171;-88
2023/08/21 07:13:29;;;;;;;9.50;6.20;;;45.30;51.20;;;;;;4974636;28;20210;-87
2023/08/21 07:15:55;;;;;;;7.13;6.43;;;45.70;50.60;;;;;;4974879;28;20479;-91
2023/08/21 07:18:23;;;;;;;7.73;6.87;;;44.50;49.90;;;;;;4976618;28;20211;-87
2023/08/21 07:20:52;;;;;;;8.60;6.83;;;44.10;51.80;;;;;;4982924;28;20439;-84
2023/08/21 07:23:19;;;;;;;11.00;6.63;;;43.20;52.90;;;;;;4981354;28;20458;-88
2023/08/21 07:25:44;;;;;;;9.33;6.80;;;43.20;52.80;;;;;;4972897;28;20472;-86
2023/08/21 07:28:10;;;;;;;9.93;7.03;;;45.00;51.60;;;;;;4966664;28;20475;-85
2023/08/21 07:30:38;;;;;;;9.30;6.60;;;46.40;49.20;;;;;;4969422;28;20187;-87
2023/08/21 07:33:04;;;;;;;7.70;6.40;;;45.90;48.00;;;;;;4969114;28;20494;-86
2023/08/21 07:35:29;;;;;;;7.47;6.73;;;44.70;50.10;;;;;;4969664;28;20525;-86
2023/08/21 07:37:55;;;;;;;9.17;7.00;;;44.50;50.20;;;;;;4969750;28;20455;-86
2023/08/21 07:40:20;;;;;;;8.20;6.67;;;45.30;48.70;;;;;;4981730;28;20218;-86
2023/08/21 07:42:46;;;;;;;10.70;6.80;;;44.90;48.90;;;;;;4989158;28;20191;-87
2023/08/21 07:45:12;;;;;;;7.50;6.60;;;43.90;50.00;;;;;;4975702;28;20195;-87
2023/08/21 07:47:37;;;;;;;9.87;7.27;;;;;;;;;;4966793;28;20199;-87
2023/08/21 07:50:04;;;;;;;8.80;7.20;;;41.30;53.90;;;;;;4971380;28;20183;-86
2023/08/21 07:52:30;;;;;;;12.33;7.07;;;42.70;53.30;;;;;;4962448;28;20261;-85
2023/08/21 07:54:55;;;;;;;8.60;7.07;;;42.90;53.30;;;;;;4968386;28;20470;-89
2023/08/21 07:57:21;;;;;;;11.63;7.17;;;;;;;;;;4977317;28;20250;-84
2023/08/21 07:59:47;;;;;;;8.37;7.60;;;43.70;50.90;;;;;;4978465;28;20191;-86
2023/08/21 08:02:13;;;;;;;10.10;8.43;;;42.20;53.00;;;;;;4973274;28;20537;-86
2023/08/21 08:04:39;;;;;;;12.00;7.43;;;41.90;54.10;;;;;;4988415;28;20367;-87
2023/08/21 08:07:07;;;;;;;9.93;7.40;;;42.60;54.00;;;;;;4976490;28;21087;-86
2023/08/21 08:09:33;;;;;;;8.47;7.67;;;42.50;52.70;;;;;;4976828;28;20195;-84
2023/08/21 08:11:59;;;;;;;8.53;7.67;;;;;;;;;;4979422;28;20435;-86
2023/08/21 08:14:24;;;;;;;9.30;8.03;;;42.90;54.00;;;;;;4979864;28;20179;-89
2023/08/21 08:16:50;;;;;;;8.13;7.33;;;43.90;53.10;;;;;;4980862;28;20447;-88
2023/08/21 08:19:15;;;;;;;9.67;7.30;;;46.00;50.00;;;;;;4979829;28;20823;-87
2023/08/21 08:21:41;;;;;;;7.37;6.77;;;47.30;48.90;;;;;;4988933;28;20215;-88
2023/08/21 08:24:07;;;;;;;8.00;7.30;;;;;;;;;;4974969;28;20223;-90
2023/08/21 08:26:32;;;;;;;9.50;7.37;;;;;;;;;;4975302;28;20213;-88
2023/08/21 08:28:58;;;;;;;8.00;6.17;;;47.20;43.00;;;;;;4974479;28;21005;-88
2023/08/21 08:31:25;;;;;;;8.57;7.70;;;47.50;45.20;;;;;;4975361;28;20188;-89
2023/08/21 08:33:51;;;;;;;13.73;8.33;;;46.50;45.20;;;;;;4973300;28;20561;-87
2023/08/21 08:36:17;;;;;;;8.20;7.40;;;46.50;44.80;;;;;;4975542;28;20507;-88
2023/08/21 08:38:43;;;;;;;8.30;7.40;;;;;;;;;;4974241;28;20690;-88
2023/08/21 08:41:30;;;;;;;8.17;7.47;;;46.00;44.60;;;;;;4974066;28;20909;-87
2023/08/21 08:43:58;;;;;;;9.60;7.40;;;46.10;45.40;;;;;;4983111;28;20438;-84
2023/08/21 08:46:24;;;;;;;9.00;7.63;;;43.90;46.40;;;;;;4991416;28;20481;-88
2023/08/21 08:48:51;;;;;;;9.63;7.33;;;45.40;47.30;;;;;;4976292;28;20560;-87
2023/08/21 08:51:17;;;;;;;10.27;7.67;;;45.40;47.80;;;;;;4981561;28;20446;-89
2023/08/21 08:53:43;;;;;;;10.90;7.73;;;44.40;47.50;;;;;;4971764;28;20507;-87
2023/08/21 08:56:09;;;;;;;8.13;7.40;;;43.20;51.00;;;;;;4983992;28;20174;-87
2023/08/21 08:58:35;;;;;;;15.17;8.60;;;43.70;50.90;;;;;;4975948;28;20867;-85
2023/08/21 09:01:00;;;;;;;11.00;7.60;;;44.20;49.00;;;;;;4984840;28;20492;-87
2023/08/21 09:03:27;;;;;;;8.30;7.60;;;44.10;50.20;;;;;;4982744;28;20187;-89
2023/08/21 09:05:53;;;;;;;8.40;7.57;;;45.90;48.20;;;;;;4973602;28;20208;-88
2023/08/21 09:08:19;;;;;;;15.20;8.47;;;47.10;47.00;;;;;;4977104;28;20475;-88
2023/08/21 09:10:45;;;;;;;14.00;7.30;;;47.90;45.10;;;;;;4977629;28;20287;-85
2023/08/21 09:13:19;;;;;;;9.63;7.43;;;48.70;43.60;;;;;;4979674;28;20900;-88
2023/08/21 09:15:55;;;;;;;7.97;7.27;;;46.70;44.80;;;;;;4986667;28;20192;-87
2023/08/21 09:18:21;;;;;;;11.33;8.40;;;43.70;47.20;;;;;;4985684;28;20461;-89
2023/08/21 09:20:48;;;;;;;9.37;8.17;;;42.10;50.50;;;;;;4980524;28;20442;-89
2023/08/21 09:23:18;;;;;;;8.40;7.40;;;41.00;54.40;;;;;;4981844;28;20196;-87
2023/08/21 09:25:48;;;;;;;12.30;7.70;;;41.80;52.70;;;;;;4979561;28;20606;-87
2023/08/21 09:28:14;;;;;;;9.47;7.40;;;39.40;54.80;;;;;;4981949;28;20480;-85
2023/08/21 09:30:48;;;;;;;10.43;8.30;;;37.80;57.60;;;;;;4983490;28;20422;-86
2023/08/21 09:33:17;;;;;;;12.67;7.87;;;37.60;59.80;;;;;;4978789;28;20506;-86
2023/08/21 09:35:43;;;;;;;13.47;7.77;;;38.70;59.60;;;;;;4978029;28;20446;-87
2023/08/21 09:38:10;;;;;;;10.47;8.10;;;40.80;59.00;;;;;;4976819;28;21031;-87
2023/08/21 09:40:39;;;;;;;9.53;8.33;;;42.20;53.70;;;;;;4981275;28;20447;-88
2023/08/21 09:43:05;;;;;;;11.23;7.60;;;44.10;50.80;;;;;;4979395;28;20969;-85
2023/08/21 09:45:33;;;;;;;8.77;7.30;;;44.20;51.30;;;;;;4971716;28;20751;-84
2023/08/21 09:47:59;;;;;;;7.00;5.60;;;44.80;49.20;;;;;;4995177;28;20458;-86
2023/08/21 09:50:28;;;;;;;6.47;5.80;;;44.50;45.60;;;;;;4979212;28;20511;-87
2023/08/21 09:52:54;;;;;;;7.23;6.33;;;44.50;46.10;;;;;;4979071;28;20438;-87
2023/08/21 09:55:22;;;;;;;7.70;6.90;;;45.40;46.30;;;;;;4976123;28;20529;-87
2023/08/21 09:57:48;;;;;;;7.33;6.40;;;42.10;50.50;;;;;;4984416;28;20207;-89
2023/08/21 10:00:20;;;;;;;8.00;7.20;;;42.10;50.70;;;;;;4979849;28;20996;-88
2023/08/21 10:02:59;;;;;;;7.33;6.30;;;40.60;50.30;;;;;;4979156;28;20438;-87
2023/08/21 10:05:25;;;;;;;10.70;6.10;;;41.00;52.90;;;;;;4995563;28;20461;-86
2023/08/21 10:07:52;;;;;;;6.80;5.67;;;42.40;48.70;;;;;;4986275;28;20537;-89
2023/08/21 10:10:18;;;;;;;10.83;5.63;;;43.50;47.30;;;;;;4989357;28;20461;-85
2023/08/21 10:12:44;;;;;;;7.73;5.80;;;44.10;46.60;;;;;;4983076;28;20423;-90
2023/08/21 10:15:11;;;;;;;8.00;7.20;;;43.40;47.70;;;;;;4982156;28;20511;-87
2023/08/21 10:17:37;;;;;;;9.97;6.57;;;42.90;48.50;;;;;;4988273;28;20208;-87
2023/08/21 10:20:07;;;;;;;8.47;6.40;;;43.50;46.50;;;;;;4989645;28;20468;-89
2023/08/21 10:22:48;;;;;;;11.70;6.77;;;44.20;46.50;;;;;;4976721;28;20535;-87
2023/08/21 10:25:22;;;;;;;6.43;5.83;;;44.10;47.10;;;;;;4975191;28;20617;-86
2023/08/21 10:27:53;;;;;;;7.90;6.70;;;42.90;45.70;;;;;;4975462;28;20462;-88
2023/08/21 10:30:22;;;;;;;9.27;6.97;;;41.20;48.10;;;;;;4974274;28;20597;-87
2023/08/21 10:32:49;;;;;;;7.27;6.50;;;39.80;52.50;;;;;;4979324;28;20514;-88
2023/08/21 10:35:17;;;;;;;8.13;6.70;;;37.30;56.50;;;;;;4979050;28;20453;-87
2023/08/21 10:38:10;;;;;;;8.20;7.40;;;36.00;58.00;;;;;;4973470;28;20459;-87
2023/08/21 10:40:36;;;;;;;12.87;7.10;;;35.70;61.20;;;;;;4978058;28;20453;-89
2023/08/21 10:43:02;;;;;;;17.13;7.07;;;35.80;59.50;;;;;;4983620;28;20512;-88
2023/08/21 10:45:29;;;;;;;8.90;6.83;;;35.70;61.00;;;;;;4975471;28;20803;-89
2023/08/21 10:48:01;;;;;;;10.23;8.30;;;35.10;62.90;;;;;;4976705;28;20804;-86
2023/08/21 10:50:26;;;;;;;10.13;7.90;;;34.90;64.80;;;;;;4994859;28;20467;-87
2023/08/21 10:52:53;;;;;;;7.83;7.13;;;34.90;65.90;;;;;;4990285;28;20445;-88
2023/08/21 10:55:19;;;;;;;10.77;7.10;;;34.40;68.50;;;;;;4980354;28;20674;-86
2023/08/21 10:57:47;;;;;;;10.53;6.60;;;34.10;69.10;;;;;;4974548;28;20516;-86
2023/08/21 11:00:15;;;;;;;8.77;7.20;;;34.00;70.80;;;;;;4975185;28;20222;-87
2023/08/21 11:02:43;;;;;;;13.73;8.23;;;34.00;74.10;;;;;;4981144;28;20495;-85
2023/08/21 11:05:10;;;;;;;9.20;8.00;;;34.00;76.30;;;;;;4976267;28;21015;-87
2023/08/21 11:07:46;;;;;;;9.13;7.07;;;34.00;75.10;;;;;;4984604;28;20892;-85
2023/08/21 11:10:17;;;;;;;8.63;7.70;;;34.20;76.30;;;;;;4986748;28;20434;-88
2023/08/21 11:12:57;;;;;;;12.53;7.60;;;34.40;71.40;;;;;;4980457;28;20657;-89
2023/08/21 11:15:25;;;;;;;9.53;7.27;;;34.20;74.80;;;;;;4996575;28;20432;-85
2023/08/21 11:18:02;;;;;;;14.50;7.27;;;34.10;74.90;;;;;;4986946;28;20455;-85
2023/08/21 11:20:34;;;;;;;9.37;7.80;;;34.20;79.60;;;;;;4977629;28;20424;-88
2023/08/21 11:23:10;;;;;;;13.63;7.73;;;33.40;78.90;;;;;;4977627;28;21511;-86
2023/08/21 11:25:40;;;;;;;13.57;7.20;;;32.60;83.00;;;;;;4974818;28;20469;-87
2023/08/21 11:28:08;;;;;;;12.70;8.73;;;32.80;83.00;;;;;;4982169;28;20461;-86
2023/08/21 11:30:34;;;;;;;11.23;7.30;;;32.70;84.10;;;;;;4992014;28;21086;-89
2023/08/21 11:33:05;;;;;;;9.83;6.93;;;33.20;86.40;;;;;;4972517;28;20434;-87
2023/08/21 11:35:31;;;;;;;15.13;8.30;;;33.60;82.50;;;;;;4981483;28;20500;-88
2023/08/21 11:37:57;;;;;;;14.30;8.00;;;;;;;;;;4974473;28;20461;-85
2023/08/21 11:40:23;;;;;;;10.03;7.30;;;;;;;;;;4982548;28;20179;-85
2023/08/21 11:42:51;;;;;;;9.57;6.70;;;33.90;76.00;;;;;;4983597;28;20430;-88
2023/08/21 11:45:21;;;;;;;7.60;6.80;;;33.90;77.00;;;;;;4983199;28;22362;-89
2023/08/21 11:47:47;;;;;;;10.43;7.37;;;33.40;79.20;;;;;;4981520;28;21513;-87
2023/08/21 11:50:15;;;;;;;8.33;7.53;;;33.00;81.20;;;;;;4978866;28;20499;-87
2023/08/21 11:52:42;;;;;;;9.13;7.63;;;32.70;85.00;;;;;;4980654;28;20771;-85
2023/08/21 11:55:10;;;;;;;10.77;8.00;;;32.20;86.50;;;;;;4979588;28;20856;-86
2023/08/21 11:57:47;;;;;;;12.93;8.93;;;32.20;87.70;;;;;;4979969;28;20495;-89
2023/08/21 12:00:13;;;;;;;14.23;7.70;;;32.30;86.40;;;;;;4980461;28;20462;-87
2023/08/21 12:02:39;;;;;;;13.03;8.70;;;32.10;88.90;;;;;;4978514;28;20450;-89
2023/08/21 12:05:05;;;;;;;11.77;7.83;;;31.70;90.30;;;;;;4978122;28;20443;-87
2023/08/21 12:07:32;;;;;;;10.20;8.23;;;31.80;91.60;;;;;;4982426;28;20277;-87
2023/08/21 12:09:57;;;;;;;9.73;7.70;;;31.80;91.90;;;;;;4981613;28;20492;-86
2023/08/21 12:12:24;;;;;;;11.73;7.80;;;31.80;93.50;;;;;;4983625;28;20477;-88
2023/08/21 12:14:49;;;;;;;8.00;7.20;;;31.80;91.70;;;;;;4988699;28;20295;-85
2023/08/21 12:17:15;;;;;;;12.27;7.03;;;32.40;92.40;;;;;;4985661;28;20511;-87
2023/08/21 12:19:44;;;;;;;7.10;6.20;;;32.40;90.40;;;;;;4981836;28;20192;-88
2023/08/21 12:22:10;;;;;;;11.00;8.07;;;32.80;90.20;;;;;;4985267;28;20482;-88
2023/08/21 12:24:36;;;;;;;7.87;6.87;;;32.90;91.00;;;;;;4987605;28;20515;-87
2023/08/21 12:27:03;;;;;;;11.73;7.63;;;33.00;91.10;;;;;;4985589;28;20551;-87
2023/08/21 12:29:28;;;;;;;11.13;6.97;;;32.80;87.40;;;;;;4981844;28;21129;-88
2023/08/21 12:31:54;;;;;;;11.07;7.20;;;33.10;90.60;;;;;;4986662;28;20464;-87
2023/08/21 12:34:20;;;;;;;7.53;6.33;;;32.90;87.60;;;;;;4987993;28;20178;-87
2023/08/21 12:36:46;;;;;;;7.73;7.10;;;33.20;90.50;;;;;;4986540;28;20304;-87
2023/08/21 12:39:11;;;;;;;10.60;7.23;;;33.60;89.10;;;;;;4985961;28;20198;-87
2023/08/21 12:41:37;;;;;;;8.73;6.87;;;33.90;89.30;;;;;;4985978;28;20458;-87
2023/08/21 12:44:03;;;;;;;8.60;6.90;;;34.40;85.50;;;;;;4996740;28;20189;-86